Carmelita — WDC8054 — position and weather

sailwx.info

Track history (hours):
 
Tides and Currents Weather Stations Pressure Air Temp Water Temp Dewpoint Dewpoint Depression Visibility Wind Speed Wind Dir Waves Ship Positions

Carmelita

Owner: Lewis, Christian A, San Carlos, CA. More information available from US FCC via Universal Licensing System and Coast Guard Vessel Documentation Center.

Last reported at 2017-Oct-12 00:10 UTC. Time now 2017-Oct-22 19:05 UTC.
Position N 37°55' W 122°23'.
Warning: this ship's position is 10 days out of date.

Length 13 m.

Type: Sailing vessel. MMSI: 367080950.

Date/timePositionNaut miles runAvg speedWind from/ knotsBaromVisibWave heightAir tempDewpointWater temp
2017-Oct-12 00:10N 37°55' W 122°23'1 4.0
2017-Oct-12 00:00N 37°54' W 122°24'4 7.5
2017-Oct-11 23:30N 37°51' W 122°25'3 5.0
2017-Oct-11 22:59N 37°48' W 122°27'0 0.0
2017-Oct-11 22:30N 37°48' W 122°27'1 2.7
2017-Oct-11 22:00N 37°49' W 122°25'3 5.6
2017-Oct-11 21:30N 37°50' W 122°28'1 1.8
2017-Oct-11 21:00N 37°49' W 122°28'1 1.2
2017-Oct-11 20:30N 37°49' W 122°27'1 1.3
2017-Oct-11 19:58N 37°48' W 122°27'0 0.0
2017-Oct-11 19:29N 37°48' W 122°27'0 0.0
2017-Oct-11 18:59N 37°48' W 122°27'0 0.0
2017-Oct-11 18:29N 37°48' W 122°27'0 0.0
2017-Oct-11 17:59N 37°48' W 122°27'0 0.6
2017-Oct-11 17:30N 37°48' W 122°26'4 7.3
2017-Oct-11 17:00N 37°52' W 122°25'  
Track history (hours):
 
Tides and Currents Weather Stations Pressure Air Temp Water Temp Dewpoint Dewpoint Depression Visibility Wind Speed Wind Dir Waves Ship Positions

Carmelita

Owner: Lewis, Christian A, San Carlos, CA. More information available from US FCC via Universal Licensing System and Coast Guard Vessel Documentation Center.

Last reported at 2017-Oct-12 00:10 UTC. Time now 2017-Oct-22 19:05 UTC.
Position N 37°55' W 122°23'.
Warning: this ship's position is 10 days out of date.

Length 13 m.

Type: Sailing vessel. MMSI: 367080950.

Date/timePositionNaut miles runAvg speedWind from/ knotsBaromVisibWave heightAir tempDewpointWater temp
2017-Oct-12 00:10N 37°55' W 122°23'1 4.0
2017-Oct-12 00:00N 37°54' W 122°24'4 7.5
2017-Oct-11 23:30N 37°51' W 122°25'3 5.0
2017-Oct-11 22:59N 37°48' W 122°27'0 0.0
2017-Oct-11 22:30N 37°48' W 122°27'1 2.7
2017-Oct-11 22:00N 37°49' W 122°25'3 5.6
2017-Oct-11 21:30N 37°50' W 122°28'1 1.8
2017-Oct-11 21:00N 37°49' W 122°28'1 1.2
2017-Oct-11 20:30N 37°49' W 122°27'1 1.3
2017-Oct-11 19:58N 37°48' W 122°27'0 0.0
2017-Oct-11 19:29N 37°48' W 122°27'0 0.0
2017-Oct-11 18:59N 37°48' W 122°27'0 0.0
2017-Oct-11 18:29N 37°48' W 122°27'0 0.0
2017-Oct-11 17:59N 37°48' W 122°27'0 0.6
2017-Oct-11 17:30N 37°48' W 122°26'4 7.3
2017-Oct-11 17:00N 37°52' W 122°25'  

Dump ship's entire track history